sensor_id;sensor_type;location;lat;lon;timestamp;temperature;humidity
32749;DHT22;19119;52.474;13.710;2022-10-31T00:00:49;9.80;99.90
32749;DHT22;19119;52.474;13.710;2022-10-31T00:03:16;9.80;99.90
32749;DHT22;19119;52.474;13.710;2022-10-31T00:05:47;9.70;99.90
32749;DHT22;19119;52.474;13.710;2022-10-31T00:08:14;9.80;99.90
32749;DHT22;19119;52.474;13.710;2022-10-31T00:10:41;9.70;99.90
32749;DHT22;19119;52.474;13.710;2022-10-31T00:13:07;9.70;99.90
32749;DHT22;19119;52.474;13.710;2022-10-31T00:15:34;9.70;99.90
32749;DHT22;19119;52.474;13.710;2022-10-31T00:18:00;9.70;99.90
32749;DHT22;19119;52.474;13.710;2022-10-31T00:20:25;9.60;99.90
32749;DHT22;19119;52.474;13.710;2022-10-31T00:22:51;9.60;99.90
32749;DHT22;19119;52.474;13.710;2022-10-31T00:25:16;9.50;99.90
32749;DHT22;19119;52.474;13.710;2022-10-31T00:27:42;9.50;99.90
32749;DHT22;19119;52.474;13.710;2022-10-31T00:30:08;9.50;99.90
32749;DHT22;19119;52.474;13.710;2022-10-31T00:32:33;9.50;99.90
32749;DHT22;19119;52.474;13.710;2022-10-31T00:34:59;9.50;99.90
32749;DHT22;19119;52.474;13.710;2022-10-31T00:37:24;9.40;99.90
32749;DHT22;19119;52.474;13.710;2022-10-31T00:39:50;9.40;99.90
32749;DHT22;19119;52.474;13.710;2022-10-31T00:42:15;9.50;99.90
32749;DHT22;19119;52.474;13.710;2022-10-31T00:44:41;9.40;99.90
32749;DHT22;19119;52.474;13.710;2022-10-31T00:47:06;9.40;99.90
32749;DHT22;19119;52.474;13.710;2022-10-31T00:49:32;9.40;99.90
32749;DHT22;19119;52.474;13.710;2022-10-31T00:51:57;9.40;99.90
32749;DHT22;19119;52.474;13.710;2022-10-31T00:54:23;9.40;99.90
32749;DHT22;19119;52.474;13.710;2022-10-31T00:56:48;9.40;99.90
32749;DHT22;19119;52.474;13.710;2022-10-31T00:59:14;9.30;99.90
32749;DHT22;19119;52.474;13.710;2022-10-31T01:01:39;9.30;99.90
32749;DHT22;19119;52.474;13.710;2022-10-31T01:04:05;9.20;99.90
32749;DHT22;19119;52.474;13.710;2022-10-31T01:06:30;9.20;99.90
32749;DHT22;19119;52.474;13.710;2022-10-31T01:08:56;9.20;99.90
32749;DHT22;19119;52.474;13.710;2022-10-31T01:11:23;9.20;99.90
32749;DHT22;19119;52.474;13.710;2022-10-31T01:13:51;9.20;99.90
32749;DHT22;19119;52.474;13.710;2022-10-31T01:16:19;9.20;99.90
32749;DHT22;19119;52.474;13.710;2022-10-31T01:18:45;9.10;99.90
32749;DHT22;19119;52.474;13.710;2022-10-31T01:21:14;9.10;99.90
32749;DHT22;19119;52.474;13.710;2022-10-31T01:23:40;9.10;99.90
32749;DHT22;19119;52.474;13.710;2022-10-31T01:26:07;9.10;99.90
32749;DHT22;19119;52.474;13.710;2022-10-31T01:28:35;9.10;99.90
32749;DHT22;19119;52.474;13.710;2022-10-31T01:31:04;9.00;99.90
32749;DHT22;19119;52.474;13.710;2022-10-31T01:33:30;9.00;99.90
32749;DHT22;19119;52.474;13.710;2022-10-31T01:35:56;9.00;99.90
32749;DHT22;19119;52.474;13.710;2022-10-31T01:38:22;9.00;99.90
32749;DHT22;19119;52.474;13.710;2022-10-31T01:40:48;9.00;99.90
32749;DHT22;19119;52.474;13.710;2022-10-31T01:43:14;8.90;99.90
32749;DHT22;19119;52.474;13.710;2022-10-31T01:45:41;8.90;99.90
32749;DHT22;19119;52.474;13.710;2022-10-31T01:48:16;8.90;99.90
32749;DHT22;19119;52.474;13.710;2022-10-31T01:50:43;8.80;99.90
32749;DHT22;19119;52.474;13.710;2022-10-31T01:53:12;8.80;99.90
32749;DHT22;19119;52.474;13.710;2022-10-31T01:55:44;8.80;99.90
32749;DHT22;19119;52.474;13.710;2022-10-31T01:58:16;8.70;99.90
32749;DHT22;19119;52.474;13.710;2022-10-31T02:00:45;8.60;99.90
32749;DHT22;19119;52.474;13.710;2022-10-31T02:03:12;8.70;99.90
32749;DHT22;19119;52.474;13.710;2022-10-31T02:05:38;8.70;99.90
32749;DHT22;19119;52.474;13.710;2022-10-31T02:08:23;8.70;99.90
32749;DHT22;19119;52.474;13.710;2022-10-31T02:10:51;8.80;99.90
32749;DHT22;19119;52.474;13.710;2022-10-31T02:13:18;8.80;99.90
32749;DHT22;19119;52.474;13.710;2022-10-31T02:15:46;8.80;99.90
32749;DHT22;19119;52.474;13.710;2022-10-31T02:18:12;8.70;99.90
32749;DHT22;19119;52.474;13.710;2022-10-31T02:20:45;8.60;99.90
32749;DHT22;19119;52.474;13.710;2022-10-31T02:23:33;8.60;99.90
32749;DHT22;19119;52.474;13.710;2022-10-31T02:29:23;8.60;99.90
32749;DHT22;19119;52.474;13.710;2022-10-31T02:37:55;8.60;99.90
32749;DHT22;19119;52.474;13.710;2022-10-31T02:40:32;8.60;99.90
32749;DHT22;19119;52.474;13.710;2022-10-31T02:43:06;8.40;99.90
32749;DHT22;19119;52.474;13.710;2022-10-31T02:48:28;8.60;99.90
32749;DHT22;19119;52.474;13.710;2022-10-31T02:50:57;8.60;99.90
32749;DHT22;19119;52.474;13.710;2022-10-31T02:53:23;8.60;99.90
32749;DHT22;19119;52.474;13.710;2022-10-31T02:56:02;8.60;99.90
32749;DHT22;19119;52.474;13.710;2022-10-31T02:58:33;8.60;99.90
32749;DHT22;19119;52.474;13.710;2022-10-31T03:01:14;8.60;99.90
32749;DHT22;19119;52.474;13.710;2022-10-31T03:09:38;8.50;99.90
32749;DHT22;19119;52.474;13.710;2022-10-31T03:12:27;8.50;99.90
32749;DHT22;19119;52.474;13.710;2022-10-31T03:17:37;8.40;99.90
32749;DHT22;19119;52.474;13.710;2022-10-31T03:20:09;8.40;99.90
32749;DHT22;19119;52.474;13.710;2022-10-31T03:22:36;8.40;99.90
32749;DHT22;19119;52.474;13.710;2022-10-31T03:25:04;8.10;99.90
32749;DHT22;19119;52.474;13.710;2022-10-31T03:27:32;8.40;99.90
32749;DHT22;19119;52.474;13.710;2022-10-31T03:30:02;8.30;99.90
32749;DHT22;19119;52.474;13.710;2022-10-31T03:32:36;8.40;99.90
32749;DHT22;19119;52.474;13.710;2022-10-31T03:35:06;8.20;99.90
32749;DHT22;19119;52.474;13.710;2022-10-31T03:37:35;8.20;99.90
32749;DHT22;19119;52.474;13.710;2022-10-31T03:40:03;8.20;99.90
32749;DHT22;19119;52.474;13.710;2022-10-31T03:42:33;8.20;99.90
32749;DHT22;19119;52.474;13.710;2022-10-31T03:47:28;8.30;99.90
32749;DHT22;19119;52.474;13.710;2022-10-31T03:49:54;8.30;99.90
32749;DHT22;19119;52.474;13.710;2022-10-31T03:55:01;8.20;99.90
32749;DHT22;19119;52.474;13.710;2022-10-31T03:57:43;8.10;99.90
32749;DHT22;19119;52.474;13.710;2022-10-31T04:00:13;8.10;99.90
32749;DHT22;19119;52.474;13.710;2022-10-31T04:02:42;8.10;99.90
32749;DHT22;19119;52.474;13.710;2022-10-31T04:05:09;8.10;99.90
32749;DHT22;19119;52.474;13.710;2022-10-31T04:07:41;8.10;99.90
32749;DHT22;19119;52.474;13.710;2022-10-31T04:10:10;8.10;99.90
32749;DHT22;19119;52.474;13.710;2022-10-31T04:12:38;8.10;99.90
32749;DHT22;19119;52.474;13.710;2022-10-31T04:15:06;8.10;99.90
32749;DHT22;19119;52.474;13.710;2022-10-31T04:17:36;8.10;99.90
32749;DHT22;19119;52.474;13.710;2022-10-31T04:20:03;8.10;99.90
32749;DHT22;19119;52.474;13.710;2022-10-31T04:22:29;8.20;99.90
32749;DHT22;19119;52.474;13.710;2022-10-31T04:24:55;8.20;99.90
32749;DHT22;19119;52.474;13.710;2022-10-31T04:27:20;8.20;99.90
32749;DHT22;19119;52.474;13.710;2022-10-31T04:29:46;8.10;99.90
32749;DHT22;19119;52.474;13.710;2022-10-31T04:32:11;8.10;99.90
32749;DHT22;19119;52.474;13.710;2022-10-31T04:34:37;8.10;99.90
32749;DHT22;19119;52.474;13.710;2022-10-31T04:37:02;8.10;99.90
32749;DHT22;19119;52.474;13.710;2022-10-31T04:39:29;8.00;99.90
32749;DHT22;19119;52.474;13.710;2022-10-31T04:41:54;8.00;99.90
32749;DHT22;19119;52.474;13.710;2022-10-31T04:44:20;8.10;99.90
32749;DHT22;19119;52.474;13.710;2022-10-31T04:46:45;8.10;99.90
32749;DHT22;19119;52.474;13.710;2022-10-31T04:49:11;7.80;99.90
32749;DHT22;19119;52.474;13.710;2022-10-31T04:51:36;7.90;99.90
32749;DHT22;19119;52.474;13.710;2022-10-31T04:54:02;8.00;99.90
32749;DHT22;19119;52.474;13.710;2022-10-31T04:56:27;7.90;99.90
32749;DHT22;19119;52.474;13.710;2022-10-31T04:58:53;7.90;99.90
32749;DHT22;19119;52.474;13.710;2022-10-31T05:01:18;7.90;99.90
32749;DHT22;19119;52.474;13.710;2022-10-31T05:03:44;7.90;99.90
32749;DHT22;19119;52.474;13.710;2022-10-31T05:06:09;7.90;99.90
32749;DHT22;19119;52.474;13.710;2022-10-31T05:08:35;7.90;99.90
32749;DHT22;19119;52.474;13.710;2022-10-31T05:11:04;7.90;99.90
32749;DHT22;19119;52.474;13.710;2022-10-31T05:13:30;7.90;99.90
32749;DHT22;19119;52.474;13.710;2022-10-31T05:15:56;7.90;99.90
32749;DHT22;19119;52.474;13.710;2022-10-31T05:18:21;7.80;99.90
32749;DHT22;19119;52.474;13.710;2022-10-31T05:20:47;7.80;99.90
32749;DHT22;19119;52.474;13.710;2022-10-31T05:23:12;7.90;99.90
32749;DHT22;19119;52.474;13.710;2022-10-31T05:25:40;7.90;99.90
32749;DHT22;19119;52.474;13.710;2022-10-31T05:28:06;7.90;99.90
32749;DHT22;19119;52.474;13.710;2022-10-31T05:30:32;7.90;99.90
32749;DHT22;19119;52.474;13.710;2022-10-31T05:32:58;7.80;99.90
32749;DHT22;19119;52.474;13.710;2022-10-31T05:35:31;7.80;99.90
32749;DHT22;19119;52.474;13.710;2022-10-31T05:37:58;7.80;99.90
32749;DHT22;19119;52.474;13.710;2022-10-31T05:40:25;7.70;99.90
32749;DHT22;19119;52.474;13.710;2022-10-31T05:42:52;7.70;99.90
32749;DHT22;19119;52.474;13.710;2022-10-31T05:45:19;7.70;99.90
32749;DHT22;19119;52.474;13.710;2022-10-31T05:47:56;7.70;99.90
32749;DHT22;19119;52.474;13.710;2022-10-31T05:50:23;7.70;99.90
32749;DHT22;19119;52.474;13.710;2022-10-31T05:52:55;7.70;99.90
32749;DHT22;19119;52.474;13.710;2022-10-31T05:55:21;7.70;99.90
32749;DHT22;19119;52.474;13.710;2022-10-31T05:57:46;7.70;99.90
32749;DHT22;19119;52.474;13.710;2022-10-31T06:00:12;7.70;99.90
32749;DHT22;19119;52.474;13.710;2022-10-31T06:02:38;7.80;99.90
32749;DHT22;19119;52.474;13.710;2022-10-31T06:05:03;7.80;99.90
32749;DHT22;19119;52.474;13.710;2022-10-31T06:07:33;7.80;99.90
32749;DHT22;19119;52.474;13.710;2022-10-31T06:09:59;7.80;99.90
32749;DHT22;19119;52.474;13.710;2022-10-31T06:12:25;7.80;99.90
32749;DHT22;19119;52.474;13.710;2022-10-31T06:14:51;7.80;99.90
32749;DHT22;19119;52.474;13.710;2022-10-31T06:17:16;7.80;99.90
32749;DHT22;19119;52.474;13.710;2022-10-31T06:19:42;7.80;99.90
32749;DHT22;19119;52.474;13.710;2022-10-31T06:22:07;7.80;99.90
32749;DHT22;19119;52.474;13.710;2022-10-31T06:24:33;7.80;99.90
32749;DHT22;19119;52.474;13.710;2022-10-31T06:26:58;7.80;99.90
32749;DHT22;19119;52.474;13.710;2022-10-31T06:29:24;7.90;99.90
32749;DHT22;19119;52.474;13.710;2022-10-31T06:31:53;7.90;99.90
32749;DHT22;19119;52.474;13.710;2022-10-31T06:34:18;8.00;99.90
32749;DHT22;19119;52.474;13.710;2022-10-31T06:36:46;8.00;99.90
32749;DHT22;19119;52.474;13.710;2022-10-31T06:39:11;8.00;99.90
32749;DHT22;19119;52.474;13.710;2022-10-31T06:41:37;8.00;99.90
32749;DHT22;19119;52.474;13.710;2022-10-31T06:44:02;8.10;99.90
32749;DHT22;19119;52.474;13.710;2022-10-31T06:46:28;8.20;99.90
32749;DHT22;19119;52.474;13.710;2022-10-31T06:48:53;8.20;99.90
32749;DHT22;19119;52.474;13.710;2022-10-31T06:51:19;8.20;99.90
32749;DHT22;19119;52.474;13.710;2022-10-31T06:53:44;8.30;99.90
32749;DHT22;19119;52.474;13.710;2022-10-31T06:56:10;8.40;99.90
32749;DHT22;19119;52.474;13.710;2022-10-31T06:58:35;8.40;99.90
32749;DHT22;19119;52.474;13.710;2022-10-31T07:01:01;8.50;99.90
32749;DHT22;19119;52.474;13.710;2022-10-31T07:03:27;8.50;99.90
32749;DHT22;19119;52.474;13.710;2022-10-31T07:05:55;8.70;99.90
32749;DHT22;19119;52.474;13.710;2022-10-31T07:08:21;8.70;99.90
32749;DHT22;19119;52.474;13.710;2022-10-31T07:10:52;8.80;99.90
32749;DHT22;19119;52.474;13.710;2022-10-31T07:13:18;8.80;99.90
32749;DHT22;19119;52.474;13.710;2022-10-31T07:15:44;8.80;99.90
32749;DHT22;19119;52.474;13.710;2022-10-31T07:18:11;9.00;99.90
32749;DHT22;19119;52.474;13.710;2022-10-31T07:20:37;9.10;99.90
32749;DHT22;19119;52.474;13.710;2022-10-31T07:23:03;9.20;99.90
32749;DHT22;19119;52.474;13.710;2022-10-31T07:25:29;9.30;99.90
32749;DHT22;19119;52.474;13.710;2022-10-31T07:27:55;9.40;99.90
32749;DHT22;19119;52.474;13.710;2022-10-31T07:30:20;9.70;99.90
32749;DHT22;19119;52.474;13.710;2022-10-31T07:32:48;9.70;99.90
32749;DHT22;19119;52.474;13.710;2022-10-31T07:35:16;9.90;99.90
32749;DHT22;19119;52.474;13.710;2022-10-31T07:37:41;10.10;99.90
32749;DHT22;19119;52.474;13.710;2022-10-31T07:40:07;10.20;99.90
32749;DHT22;19119;52.474;13.710;2022-10-31T07:42:41;10.40;99.90
32749;DHT22;19119;52.474;13.710;2022-10-31T07:45:09;10.60;99.90
32749;DHT22;19119;52.474;13.710;2022-10-31T07:47:42;10.90;99.90
32749;DHT22;19119;52.474;13.710;2022-10-31T07:50:10;11.10;99.90
32749;DHT22;19119;52.474;13.710;2022-10-31T07:52:36;11.40;99.90
32749;DHT22;19119;52.474;13.710;2022-10-31T07:55:03;11.60;99.90
32749;DHT22;19119;52.474;13.710;2022-10-31T07:57:29;11.90;99.90
32749;DHT22;19119;52.474;13.710;2022-10-31T07:59:55;12.30;99.90
32749;DHT22;19119;52.474;13.710;2022-10-31T08:02:21;12.70;99.90
32749;DHT22;19119;52.474;13.710;2022-10-31T08:04:46;13.00;99.90
32749;DHT22;19119;52.474;13.710;2022-10-31T08:07:12;13.30;99.90
32749;DHT22;19119;52.474;13.710;2022-10-31T08:09:37;13.50;99.90
32749;DHT22;19119;52.474;13.710;2022-10-31T08:12:03;13.70;99.90
32749;DHT22;19119;52.474;13.710;2022-10-31T08:14:29;14.00;99.90
32749;DHT22;19119;52.474;13.710;2022-10-31T08:16:54;14.30;99.90
32749;DHT22;19119;52.474;13.710;2022-10-31T08:19:20;14.60;99.90
32749;DHT22;19119;52.474;13.710;2022-10-31T08:21:45;14.60;99.90
32749;DHT22;19119;52.474;13.710;2022-10-31T08:24:11;14.70;99.90
32749;DHT22;19119;52.474;13.710;2022-10-31T08:26:37;14.80;99.90
32749;DHT22;19119;52.474;13.710;2022-10-31T08:29:03;14.90;99.90
32749;DHT22;19119;52.474;13.710;2022-10-31T08:31:29;15.00;99.90
32749;DHT22;19119;52.474;13.710;2022-10-31T08:33:55;14.90;99.90
32749;DHT22;19119;52.474;13.710;2022-10-31T08:36:21;15.00;99.90
32749;DHT22;19119;52.474;13.710;2022-10-31T08:38:47;14.90;99.90
32749;DHT22;19119;52.474;13.710;2022-10-31T08:41:13;15.00;99.90
32749;DHT22;19119;52.474;13.710;2022-10-31T08:43:38;14.90;99.90
32749;DHT22;19119;52.474;13.710;2022-10-31T08:46:04;14.90;99.90
32749;DHT22;19119;52.474;13.710;2022-10-31T08:48:30;14.80;99.90
32749;DHT22;19119;52.474;13.710;2022-10-31T08:50:57;14.80;99.90
32749;DHT22;19119;52.474;13.710;2022-10-31T08:53:24;14.70;99.90
32749;DHT22;19119;52.474;13.710;2022-10-31T08:55:49;14.70;99.90
32749;DHT22;19119;52.474;13.710;2022-10-31T08:58:18;14.80;99.90
32749;DHT22;19119;52.474;13.710;2022-10-31T09:00:45;14.80;99.90
32749;DHT22;19119;52.474;13.710;2022-10-31T09:03:15;14.90;99.90
32749;DHT22;19119;52.474;13.710;2022-10-31T09:05:41;14.90;99.90
32749;DHT22;19119;52.474;13.710;2022-10-31T09:08:08;15.20;99.90
32749;DHT22;19119;52.474;13.710;2022-10-31T09:10:35;15.40;99.90
32749;DHT22;19119;52.474;13.710;2022-10-31T09:13:07;15.50;99.90
32749;DHT22;19119;52.474;13.710;2022-10-31T09:15:35;15.80;99.90
32749;DHT22;19119;52.474;13.710;2022-10-31T09:18:01;16.10;99.90
32749;DHT22;19119;52.474;13.710;2022-10-31T09:20:28;16.20;99.90
32749;DHT22;19119;52.474;13.710;2022-10-31T09:22:58;16.50;99.90
32749;DHT22;19119;52.474;13.710;2022-10-31T09:25:24;16.60;99.90
32749;DHT22;19119;52.474;13.710;2022-10-31T09:27:50;16.50;99.90
32749;DHT22;19119;52.474;13.710;2022-10-31T09:30:15;16.60;99.90
32749;DHT22;19119;52.474;13.710;2022-10-31T09:32:41;16.90;99.90
32749;DHT22;19119;52.474;13.710;2022-10-31T09:35:06;17.00;99.90
32749;DHT22;19119;52.474;13.710;2022-10-31T09:37:33;17.00;99.90
32749;DHT22;19119;52.474;13.710;2022-10-31T09:39:58;17.00;99.90
32749;DHT22;19119;52.474;13.710;2022-10-31T09:42:39;16.80;99.90
32749;DHT22;19119;52.474;13.710;2022-10-31T09:51:17;16.80;99.90
32749;DHT22;19119;52.474;13.710;2022-10-31T09:54:11;16.70;99.90
32749;DHT22;19119;52.474;13.710;2022-10-31T09:56:38;16.60;99.90
32749;DHT22;19119;52.474;13.710;2022-10-31T09:59:06;16.60;99.90
32749;DHT22;19119;52.474;13.710;2022-10-31T10:01:56;16.60;99.90
32749;DHT22;19119;52.474;13.710;2022-10-31T10:04:51;16.60;99.90
32749;DHT22;19119;52.474;13.710;2022-10-31T10:07:30;16.80;99.90
32749;DHT22;19119;52.474;13.710;2022-10-31T10:10:00;16.90;99.90
32749;DHT22;19119;52.474;13.710;2022-10-31T10:18:24;17.70;99.90
32749;DHT22;19119;52.474;13.710;2022-10-31T10:27:24;17.60;99.90
32749;DHT22;19119;52.474;13.710;2022-10-31T10:32:50;17.60;99.90
32749;DHT22;19119;52.474;13.710;2022-10-31T10:37:51;17.50;99.90
32749;DHT22;19119;52.474;13.710;2022-10-31T10:40:20;17.50;99.90
32749;DHT22;19119;52.474;13.710;2022-10-31T10:43:12;17.80;99.90
32749;DHT22;19119;52.474;13.710;2022-10-31T10:48:58;18.50;99.90
32749;DHT22;19119;52.474;13.710;2022-10-31T10:51:39;18.90;99.90
32749;DHT22;19119;52.474;13.710;2022-10-31T10:54:45;18.90;99.90
32749;DHT22;19119;52.474;13.710;2022-10-31T10:57:39;19.00;99.90
32749;DHT22;19119;52.474;13.710;2022-10-31T11:00:31;19.30;99.90
32749;DHT22;19119;52.474;13.710;2022-10-31T11:02:57;19.40;99.90
32749;DHT22;19119;52.474;13.710;2022-10-31T11:07:51;19.60;99.90
32749;DHT22;19119;52.474;13.710;2022-10-31T11:10:17;19.90;99.90
32749;DHT22;19119;52.474;13.710;2022-10-31T11:12:46;19.90;99.90
32749;DHT22;19119;52.474;13.710;2022-10-31T11:15:24;20.30;99.90
32749;DHT22;19119;52.474;13.710;2022-10-31T11:17:52;20.20;99.90
32749;DHT22;19119;52.474;13.710;2022-10-31T11:22:47;20.40;99.90
32749;DHT22;19119;52.474;13.710;2022-10-31T11:27:45;19.80;99.90
32749;DHT22;19119;52.474;13.710;2022-10-31T11:30:13;19.80;99.90
32749;DHT22;19119;52.474;13.710;2022-10-31T11:32:47;20.00;99.90
32749;DHT22;19119;52.474;13.710;2022-10-31T11:35:17;19.60;99.90
32749;DHT22;19119;52.474;13.710;2022-10-31T11:37:45;20.00;99.90
32749;DHT22;19119;52.474;13.710;2022-10-31T11:40:17;20.20;99.90
32749;DHT22;19119;52.474;13.710;2022-10-31T11:42:44;20.50;99.90
32749;DHT22;19119;52.474;13.710;2022-10-31T11:45:17;20.50;99.90
32749;DHT22;19119;52.474;13.710;2022-10-31T11:47:49;20.50;99.90
32749;DHT22;19119;52.474;13.710;2022-10-31T11:52:58;20.90;99.90
32749;DHT22;19119;52.474;13.710;2022-10-31T11:55:37;21.00;99.90
32749;DHT22;19119;52.474;13.710;2022-10-31T11:58:04;20.60;99.90
32749;DHT22;19119;52.474;13.710;2022-10-31T12:00:34;21.00;99.90
32749;DHT22;19119;52.474;13.710;2022-10-31T12:03:14;21.10;99.90
32749;DHT22;19119;52.474;13.710;2022-10-31T12:05:41;21.30;99.90
32749;DHT22;19119;52.474;13.710;2022-10-31T12:08:12;21.30;99.90
32749;DHT22;19119;52.474;13.710;2022-10-31T12:16:30;21.40;99.90
32749;DHT22;19119;52.474;13.710;2022-10-31T12:19:11;21.30;99.90
32749;DHT22;19119;52.474;13.710;2022-10-31T12:21:52;21.50;99.90
32749;DHT22;19119;52.474;13.710;2022-10-31T12:24:43;21.60;99.90
32749;DHT22;19119;52.474;13.710;2022-10-31T12:27:33;21.00;99.90
32749;DHT22;19119;52.474;13.710;2022-10-31T12:30:18;20.80;99.90
32749;DHT22;19119;52.474;13.710;2022-10-31T12:33:05;20.70;99.90
32749;DHT22;19119;52.474;13.710;2022-10-31T12:35:50;20.60;99.90
32749;DHT22;19119;52.474;13.710;2022-10-31T12:41:35;20.80;99.90
32749;DHT22;19119;52.474;13.710;2022-10-31T12:44:43;20.50;99.90
32749;DHT22;19119;52.474;13.710;2022-10-31T12:53:02;20.00;99.90
32749;DHT22;19119;52.474;13.710;2022-10-31T12:58:35;20.30;99.90
32749;DHT22;19119;52.474;13.710;2022-10-31T13:01:11;20.30;99.90
32749;DHT22;19119;52.474;13.710;2022-10-31T13:03:55;20.40;99.90
32749;DHT22;19119;52.474;13.710;2022-10-31T13:06:29;20.10;99.90
32749;DHT22;19119;52.474;13.710;2022-10-31T13:09:06;20.20;99.90
32749;DHT22;19119;52.474;13.710;2022-10-31T13:11:37;20.00;99.90
32749;DHT22;19119;52.474;13.710;2022-10-31T13:14:23;20.00;99.90
32749;DHT22;19119;52.474;13.710;2022-10-31T13:16:50;19.80;99.90
32749;DHT22;19119;52.474;13.710;2022-10-31T13:24:57;20.00;99.90
32749;DHT22;19119;52.474;13.710;2022-10-31T13:30:23;19.70;99.90
32749;DHT22;19119;52.474;13.710;2022-10-31T13:32:56;19.90;99.90
32749;DHT22;19119;52.474;13.710;2022-10-31T13:40:42;19.50;99.90
32749;DHT22;19119;52.474;13.710;2022-10-31T13:43:22;19.40;99.90
32749;DHT22;19119;52.474;13.710;2022-10-31T13:45:54;19.50;99.90
32749;DHT22;19119;52.474;13.710;2022-10-31T13:48:39;19.50;99.90
32749;DHT22;19119;52.474;13.710;2022-10-31T13:51:08;19.30;99.90
32749;DHT22;19119;52.474;13.710;2022-10-31T13:53:43;19.40;99.90
32749;DHT22;19119;52.474;13.710;2022-10-31T13:56:14;19.40;99.90
32749;DHT22;19119;52.474;13.710;2022-10-31T13:58:54;19.30;99.90
32749;DHT22;19119;52.474;13.710;2022-10-31T14:01:22;19.20;99.90
32749;DHT22;19119;52.474;13.710;2022-10-31T14:04:03;19.10;99.90
32749;DHT22;19119;52.474;13.710;2022-10-31T14:06:39;19.00;99.90
32749;DHT22;19119;52.474;13.710;2022-10-31T14:09:17;19.00;99.90
32749;DHT22;19119;52.474;13.710;2022-10-31T14:11:46;19.10;99.90
32749;DHT22;19119;52.474;13.710;2022-10-31T14:14:13;19.20;99.90
32749;DHT22;19119;52.474;13.710;2022-10-31T14:16:43;19.30;99.90
32749;DHT22;19119;52.474;13.710;2022-10-31T14:19:19;19.20;99.90
32749;DHT22;19119;52.474;13.710;2022-10-31T14:21:49;19.20;99.90
32749;DHT22;19119;52.474;13.710;2022-10-31T14:24:31;19.10;99.90
32749;DHT22;19119;52.474;13.710;2022-10-31T14:29:29;19.00;99.90
32749;DHT22;19119;52.474;13.710;2022-10-31T14:37:44;18.70;99.90
32749;DHT22;19119;52.474;13.710;2022-10-31T14:51:22;18.20;99.90
32749;DHT22;19119;52.474;13.710;2022-10-31T14:53:52;18.10;99.90
32749;DHT22;19119;52.474;13.710;2022-10-31T14:56:25;18.00;99.90
32749;DHT22;19119;52.474;13.710;2022-10-31T14:58:53;18.00;99.90
32749;DHT22;19119;52.474;13.710;2022-10-31T15:01:26;17.90;99.90
32749;DHT22;19119;52.474;13.710;2022-10-31T15:03:55;17.90;99.90
32749;DHT22;19119;52.474;13.710;2022-10-31T15:06:23;17.80;99.90
32749;DHT22;19119;52.474;13.710;2022-10-31T15:08:54;17.70;99.90
32749;DHT22;19119;52.474;13.710;2022-10-31T15:11:25;17.50;99.90
32749;DHT22;19119;52.474;13.710;2022-10-31T15:13:54;17.50;99.90
32749;DHT22;19119;52.474;13.710;2022-10-31T15:16:23;17.50;99.90
32749;DHT22;19119;52.474;13.710;2022-10-31T15:18:57;17.40;99.90
32749;DHT22;19119;52.474;13.710;2022-10-31T15:21:25;17.30;99.90
32749;DHT22;19119;52.474;13.710;2022-10-31T15:23:55;17.20;99.90
32749;DHT22;19119;52.474;13.710;2022-10-31T15:26:23;17.10;99.90
32749;DHT22;19119;52.474;13.710;2022-10-31T15:29:11;17.00;99.90
32749;DHT22;19119;52.474;13.710;2022-10-31T15:31:36;17.00;99.90
32749;DHT22;19119;52.474;13.710;2022-10-31T15:34:19;16.90;99.90
32749;DHT22;19119;52.474;13.710;2022-10-31T15:36:48;16.90;99.90
32749;DHT22;19119;52.474;13.710;2022-10-31T15:39:16;16.70;99.90
32749;DHT22;19119;52.474;13.710;2022-10-31T15:41:54;16.60;99.90
32749;DHT22;19119;52.474;13.710;2022-10-31T15:44:35;16.50;99.90
32749;DHT22;19119;52.474;13.710;2022-10-31T15:47:04;16.40;99.90
32749;DHT22;19119;52.474;13.710;2022-10-31T15:51:56;16.20;99.90
32749;DHT22;19119;52.474;13.710;2022-10-31T15:54:23;16.10;99.90
32749;DHT22;19119;52.474;13.710;2022-10-31T15:56:49;16.00;99.90
32749;DHT22;19119;52.474;13.710;2022-10-31T15:59:22;16.00;99.90
32749;DHT22;19119;52.474;13.710;2022-10-31T16:02:01;16.00;99.90
32749;DHT22;19119;52.474;13.710;2022-10-31T16:04:26;16.00;99.90
32749;DHT22;19119;52.474;13.710;2022-10-31T16:07:13;15.90;99.90
32749;DHT22;19119;52.474;13.710;2022-10-31T16:10:03;15.70;99.90
32749;DHT22;19119;52.474;13.710;2022-10-31T16:12:35;15.60;99.90
32749;DHT22;19119;52.474;13.710;2022-10-31T16:15:02;15.60;99.90
32749;DHT22;19119;52.474;13.710;2022-10-31T16:17:28;15.60;99.90
32749;DHT22;19119;52.474;13.710;2022-10-31T16:20:01;15.50;99.90
32749;DHT22;19119;52.474;13.710;2022-10-31T16:22:31;15.40;99.90
32749;DHT22;19119;52.474;13.710;2022-10-31T16:25:16;15.40;99.90
32749;DHT22;19119;52.474;13.710;2022-10-31T16:27:49;15.30;99.90
32749;DHT22;19119;52.474;13.710;2022-10-31T16:30:35;15.30;99.90
32749;DHT22;19119;52.474;13.710;2022-10-31T16:33:02;15.30;99.90
32749;DHT22;19119;52.474;13.710;2022-10-31T16:35:37;15.20;99.90
32749;DHT22;19119;52.474;13.710;2022-10-31T16:38:04;15.10;99.90
32749;DHT22;19119;52.474;13.710;2022-10-31T16:40:30;15.10;99.90
32749;DHT22;19119;52.474;13.710;2022-10-31T16:43:00;15.10;99.90
32749;DHT22;19119;52.474;13.710;2022-10-31T16:45:29;15.00;99.90
32749;DHT22;19119;52.474;13.710;2022-10-31T16:48:05;14.90;99.90
32749;DHT22;19119;52.474;13.710;2022-10-31T16:50:31;14.90;99.90
32749;DHT22;19119;52.474;13.710;2022-10-31T16:52:56;14.80;99.90
32749;DHT22;19119;52.474;13.710;2022-10-31T16:55:22;14.70;99.90
32749;DHT22;19119;52.474;13.710;2022-10-31T16:57:52;14.70;99.90
32749;DHT22;19119;52.474;13.710;2022-10-31T17:00:21;14.60;99.90
32749;DHT22;19119;52.474;13.710;2022-10-31T17:02:49;14.40;99.90
32749;DHT22;19119;52.474;13.710;2022-10-31T17:05:17;14.10;99.90
32749;DHT22;19119;52.474;13.710;2022-10-31T17:07:43;14.20;99.90
32749;DHT22;19119;52.474;13.710;2022-10-31T17:10:10;14.20;99.90
32749;DHT22;19119;52.474;13.710;2022-10-31T17:12:37;14.20;99.90
32749;DHT22;19119;52.474;13.710;2022-10-31T17:15:03;14.10;99.90
32749;DHT22;19119;52.474;13.710;2022-10-31T17:17:28;14.00;99.90
32749;DHT22;19119;52.474;13.710;2022-10-31T17:19:54;14.10;99.90
32749;DHT22;19119;52.474;13.710;2022-10-31T17:22:19;14.20;99.90
32749;DHT22;19119;52.474;13.710;2022-10-31T17:24:45;14.10;99.90
32749;DHT22;19119;52.474;13.710;2022-10-31T17:27:10;14.00;99.90
32749;DHT22;19119;52.474;13.710;2022-10-31T17:29:36;14.00;99.90
32749;DHT22;19119;52.474;13.710;2022-10-31T17:32:02;14.00;99.90
32749;DHT22;19119;52.474;13.710;2022-10-31T17:34:29;13.90;99.90